Time;durP1;ratioP1;P1;durP2;ratioP2;P2;SDS_P1;SDS_P2;PMS_P1;PMS_P2;Temp;Humidity;BMP_temperature;BMP_pressure;BME280_temperature;BME280_humidity;BME280_pressure;Samples;Min_cycle;Max_cycle;Signal;HPM_P1;HPM_P2
2023/06/03 00:01:07;;;;;;;57.77;2.73;;;;;;;;;;5074368;28;20454;-69
2023/06/03 00:03:34;;;;;;;57.47;2.60;;;;;;;;;;5074440;28;20561;-70
2023/06/03 00:06:01;;;;;;;57.70;2.90;;;;;;;;;;5074018;28;20455;-69
2023/06/03 00:08:28;;;;;;;57.17;2.37;;;;;;;;;;5073944;28;20966;-69
2023/06/03 00:10:55;;;;;;;57.47;2.60;;;;;;;;;;5073811;28;20474;-69
2023/06/03 00:13:24;;;;;;;57.50;2.90;;;;;;;;;;5073827;28;20475;-70
2023/06/03 00:15:51;;;;;;;57.27;2.53;;;;;;;;;;5074226;28;20465;-70
2023/06/03 00:18:18;;;;;;;57.60;3.27;;;;;;;;;;5074163;28;20505;-69
2023/06/03 00:20:47;;;;;;;57.47;2.70;;;;;;;;;;5073513;28;20439;-69
2023/06/03 00:23:14;;;;;;;58.37;2.97;;;;;;;;;;5074004;28;20471;-70
2023/06/03 00:25:42;;;;;;;57.43;2.60;;;;;;;;;;5073795;28;20455;-69
2023/06/03 00:28:09;;;;;;;57.43;2.67;;;;;;;;;;5073944;28;20443;-70
2023/06/03 00:30:38;;;;;;;57.27;2.47;;;;;;;;;;5073284;28;20532;-70
2023/06/03 00:33:05;;;;;;;57.60;2.50;;;;;;;;;;5073890;28;20474;-70
2023/06/03 00:35:33;;;;;;;57.53;2.80;;;;;;;;;;5073981;28;20454;-69
2023/06/03 00:38:01;;;;;;;57.47;2.60;;;;;;;;;;5074031;28;20479;-69
2023/06/03 00:40:28;;;;;;;57.40;2.50;;;;;;;;;;5072910;28;20451;-69
2023/06/03 00:42:55;;;;;;;57.17;2.70;;;;;;;;;;5073751;28;20478;-70
2023/06/03 00:45:22;;;;;;;57.17;2.60;;;;;;;;;;5073538;28;20447;-69
2023/06/03 00:47:51;;;;;;;57.63;2.80;;;;;;;;;;5073682;28;20835;-70
2023/06/03 00:50:18;;;;;;;57.70;2.70;;;;;;;;;;5072609;28;20451;-69
2023/06/03 00:52:46;;;;;;;57.73;3.00;;;;;;;;;;5073252;28;20474;-70
2023/06/03 00:55:13;;;;;;;58.40;3.57;;;;;;;;;;5073112;28;20447;-69
2023/06/03 00:57:40;;;;;;;57.27;3.03;;;;;;;;;;5072933;28;20553;-69
2023/06/03 01:00:08;;;;;;;58.07;2.73;;;;;;;;;;5072676;28;20801;-70
2023/06/03 01:02:36;;;;;;;58.73;2.80;;;;;;;;;;5071863;28;20507;-69
2023/06/03 01:05:04;;;;;;;57.53;2.80;;;;;;;;;;5073120;28;20499;-69
2023/06/03 01:07:37;;;;;;;57.40;2.70;;;;;;;;;;5072658;28;20443;-70
2023/06/03 01:10:10;;;;;;;57.37;2.50;;;;;;;;;;5072658;28;20490;-70
2023/06/03 01:12:43;;;;;;;58.10;3.07;;;;;;;;;;5073046;28;20474;-69
2023/06/03 01:15:13;;;;;;;57.87;2.80;;;;;;;;;;5073036;28;20446;-70
2023/06/03 01:17:45;;;;;;;57.53;2.57;;;;;;;;;;5069385;28;20459;-69
2023/06/03 01:20:14;;;;;;;58.93;4.33;;;;;;;;;;5072565;28;20450;-69
2023/06/03 01:22:42;;;;;;;57.70;2.77;;;;;;;;;;5072867;28;20463;-69
2023/06/03 01:25:11;;;;;;;57.50;2.40;;;;;;;;;;5072613;28;20538;-70
2023/06/03 01:27:39;;;;;;;57.67;2.70;;;;;;;;;;5072673;28;20530;-70
2023/06/03 01:30:07;;;;;;;57.60;2.60;;;;;;;;;;5072178;28;20825;-70
2023/06/03 01:32:34;;;;;;;57.47;3.03;;;;;;;;;;5072651;28;20525;-69
2023/06/03 01:35:02;;;;;;;57.57;3.10;;;;;;;;;;5072507;28;20449;-70
2023/06/03 01:37:30;;;;;;;57.50;2.70;;;;;;;;;;5072527;28;20452;-69
2023/06/03 01:39:57;;;;;;;57.77;3.47;;;;;;;;;;5071885;28;20487;-70
2023/06/03 01:42:25;;;;;;;57.90;3.30;;;;;;;;;;5072467;28;20533;-70
2023/06/03 01:44:53;;;;;;;58.10;3.00;;;;;;;;;;5072519;28;20831;-69
2023/06/03 01:47:20;;;;;;;57.57;3.00;;;;;;;;;;5072525;28;20443;-70
2023/06/03 01:49:47;;;;;;;57.67;3.17;;;;;;;;;;5071987;28;20453;-70
2023/06/03 01:52:15;;;;;;;57.33;2.87;;;;;;;;;;5072116;28;20832;-69
2023/06/03 01:54:42;;;;;;;57.47;3.20;;;;;;;;;;5072522;28;20450;-69
2023/06/03 01:57:09;;;;;;;57.50;2.70;;;;;;;;;;5072067;28;20459;-67
2023/06/03 01:59:38;;;;;;;57.77;3.30;;;;;;;;;;5071523;28;20866;-67
2023/06/03 02:02:05;;;;;;;59.07;5.00;;;;;;;;;;5072162;28;20892;-68
2023/06/03 02:04:33;;;;;;;57.37;2.67;;;;;;;;;;5072257;28;20447;-67
2023/06/03 02:07:00;;;;;;;57.27;2.53;;;;;;;;;;5071641;28;20825;-68
2023/06/03 02:09:28;;;;;;;57.60;2.90;;;;;;;;;;5071245;28;20452;-67
2023/06/03 02:11:55;;;;;;;57.37;2.60;;;;;;;;;;5072373;28;20515;-68
2023/06/03 02:14:22;;;;;;;58.30;3.43;;;;;;;;;;5072110;28;20815;-67
2023/06/03 02:16:52;;;;;;;58.00;3.00;;;;;;;;;;5071780;28;20457;-68
2023/06/03 02:19:20;;;;;;;57.60;2.90;;;;;;;;;;5070164;28;20528;-67
2023/06/03 02:21:47;;;;;;;57.30;2.73;;;;;;;;;;5071568;28;20472;-67
2023/06/03 02:24:16;;;;;;;58.20;2.90;;;;;;;;;;5071735;28;20457;-67
2023/06/03 02:26:49;;;;;;;57.43;2.80;;;;;;;;;;5071644;28;20455;-67
2023/06/03 02:29:17;;;;;;;57.23;2.50;;;;;;;;;;5070825;28;20505;-67
2023/06/03 02:31:44;;;;;;;57.57;3.00;;;;;;;;;;5071558;28;20475;-67
2023/06/03 02:34:13;;;;;;;58.77;3.97;;;;;;;;;;5071451;28;20456;-67
2023/06/03 02:36:40;;;;;;;57.87;3.33;;;;;;;;;;5071793;28;20454;-67
2023/06/03 02:39:09;;;;;;;57.67;2.50;;;;;;;;;;5070655;28;20471;-67
2023/06/03 02:41:36;;;;;;;58.40;3.10;;;;;;;;;;5071260;28;20463;-67
2023/06/03 02:44:03;;;;;;;57.57;2.70;;;;;;;;;;5071477;28;20443;-67
2023/06/03 02:46:30;;;;;;;57.53;2.87;;;;;;;;;;5071221;28;20870;-67
2023/06/03 02:48:57;;;;;;;58.57;3.17;;;;;;;;;;5070424;28;20449;-67
2023/06/03 02:51:26;;;;;;;57.53;2.37;;;;;;;;;;5071128;28;20452;-67
2023/06/03 02:53:53;;;;;;;57.50;2.73;;;;;;;;;;5071027;28;20447;-67
2023/06/03 02:56:22;;;;;;;57.80;2.50;;;;;;;;;;5071065;28;20473;-68
2023/06/03 02:58:50;;;;;;;57.37;2.80;;;;;;;;;;5070440;28;20526;-67
2023/06/03 03:01:17;;;;;;;58.00;2.77;;;;;;;;;;5071061;28;20443;-68
2023/06/03 03:03:44;;;;;;;57.23;2.37;;;;;;;;;;5071286;28;20443;-68
2023/06/03 03:06:12;;;;;;;57.90;3.33;;;;;;;;;;5071188;28;20828;-68
2023/06/03 03:08:41;;;;;;;66.40;2.80;;;;;;;;;;5070353;28;20509;-68
2023/06/03 03:11:09;;;;;;;57.90;3.07;;;;;;;;;;5071049;28;20448;-68
2023/06/03 03:13:36;;;;;;;57.50;2.33;;;;;;;;;;5070933;28;20479;-68
2023/06/03 03:16:03;;;;;;;57.40;2.57;;;;;;;;;;5070886;28;20451;-68
2023/06/03 03:18:31;;;;;;;57.57;2.70;;;;;;;;;;5070845;28;20477;-68
2023/06/03 03:20:58;;;;;;;57.40;2.93;;;;;;;;;;5070957;28;20482;-68
2023/06/03 03:23:26;;;;;;;58.03;3.17;;;;;;;;;;5070977;28;20472;-68
2023/06/03 03:25:55;;;;;;;57.67;3.00;;;;;;;;;;5070842;28;20451;-68
2023/06/03 03:28:22;;;;;;;57.87;3.10;;;;;;;;;;5070797;28;20459;-68
2023/06/03 03:30:49;;;;;;;57.57;2.80;;;;;;;;;;5072813;28;20820;-68
2023/06/03 03:33:18;;;;;;;58.13;3.40;;;;;;;;;;5074906;28;20498;-68
2023/06/03 03:35:45;;;;;;;57.50;2.60;;;;;;;;;;5074816;28;20454;-68
2023/06/03 03:38:12;;;;;;;57.43;2.60;;;;;;;;;;5074844;28;20447;-68
2023/06/03 03:40:40;;;;;;;57.60;2.80;;;;;;;;;;5073935;28;20491;-68
2023/06/03 03:43:15;;;;;;;57.80;2.70;;;;;;;;;;5074677;28;20923;-68
2023/06/03 03:45:42;;;;;;;57.60;3.07;;;;;;;;;;5075030;28;20439;-68
2023/06/03 03:48:10;;;;;;;57.80;2.93;;;;;;;;;;5074850;28;20458;-68
2023/06/03 03:50:41;;;;;;;57.60;2.90;;;;;;;;;;5073693;28;20435;-68
2023/06/03 03:53:09;;;;;;;57.60;2.53;;;;;;;;;;5074611;28;20475;-68
2023/06/03 03:55:39;;;;;;;58.03;3.43;;;;;;;;;;5074246;28;20455;-68
2023/06/03 03:58:08;;;;;;;57.50;2.60;;;;;;;;;;5074704;28;20447;-68
2023/06/03 04:00:39;;;;;;;57.57;2.70;;;;;;;;;;5073816;28;20503;-68
2023/06/03 04:03:09;;;;;;;57.47;2.67;;;;;;;;;;5074298;28;20478;-68
2023/06/03 04:05:37;;;;;;;57.33;2.60;;;;;;;;;;5074321;28;20470;-68
2023/06/03 04:08:05;;;;;;;57.43;2.30;;;;;;;;;;5074063;28;20955;-68
2023/06/03 04:10:32;;;;;;;57.50;2.90;;;;;;;;;;5073341;28;20452;-68
2023/06/03 04:12:59;;;;;;;58.10;3.93;;;;;;;;;;5074224;28;20463;-68
2023/06/03 04:15:30;;;;;;;57.70;2.90;;;;;;;;;;5074165;28;20454;-68
2023/06/03 04:18:00;;;;;;;57.40;2.60;;;;;;;;;;5074304;28;20438;-68
2023/06/03 04:20:38;;;;;;;59.40;4.10;;;;;;;;;;5072967;28;20483;-68
2023/06/03 04:23:06;;;;;;;57.60;3.17;;;;;;;;;;5074247;28;20470;-68
2023/06/03 04:25:34;;;;;;;57.60;3.20;;;;;;;;;;5074139;28;20443;-68
2023/06/03 04:28:02;;;;;;;57.67;3.00;;;;;;;;;;5074090;28;20451;-68
2023/06/03 04:30:29;;;;;;;57.70;2.80;;;;;;;;;;5072909;28;20452;-68
2023/06/03 04:32:56;;;;;;;57.27;2.60;;;;;;;;;;5073544;28;20477;-68
2023/06/03 04:35:24;;;;;;;57.47;2.73;;;;;;;;;;5074211;28;20455;-68
2023/06/03 04:37:51;;;;;;;57.27;2.40;;;;;;;;;;5073761;28;20455;-68
2023/06/03 04:40:19;;;;;;;57.80;3.00;;;;;;;;;;5073023;28;20849;-68
2023/06/03 04:42:47;;;;;;;57.90;3.57;;;;;;;;;;5072773;28;20813;-68
2023/06/03 04:45:15;;;;;;;59.33;3.60;;;;;;;;;;5073892;28;20801;-68
2023/06/03 04:47:42;;;;;;;57.60;2.50;;;;;;;;;;5073329;28;20924;-68
2023/06/03 04:50:10;;;;;;;57.60;2.90;;;;;;;;;;5072808;28;20451;-69
2023/06/03 04:52:38;;;;;;;57.50;2.60;;;;;;;;;;5073483;28;20486;-68
2023/06/03 04:55:06;;;;;;;57.60;2.80;;;;;;;;;;5073502;28;20445;-68
2023/06/03 04:57:37;;;;;;;57.47;3.00;;;;;;;;;;5073043;28;20542;-68
2023/06/03 05:00:06;;;;;;;57.70;2.97;;;;;;;;;;5072568;28;20498;-68
2023/06/03 05:02:34;;;;;;;57.10;2.50;;;;;;;;;;5073357;28;20548;-68
2023/06/03 05:05:02;;;;;;;57.50;3.43;;;;;;;;;;5073326;28;20450;-68
2023/06/03 05:07:29;;;;;;;57.07;2.60;;;;;;;;;;5073047;28;20863;-68
2023/06/03 05:09:58;;;;;;;57.20;2.50;;;;;;;;;;5072294;28;20443;-68
2023/06/03 05:12:25;;;;;;;57.70;2.60;;;;;;;;;;5073105;28;20464;-68
2023/06/03 05:14:53;;;;;;;57.50;3.10;;;;;;;;;;5073078;28;20447;-68
2023/06/03 05:17:20;;;;;;;59.50;5.20;;;;;;;;;;5072783;28;20968;-68
2023/06/03 05:19:47;;;;;;;57.60;3.10;;;;;;;;;;5072365;28;20489;-68
2023/06/03 05:22:14;;;;;;;57.30;2.60;;;;;;;;;;5073076;28;20467;-68
2023/06/03 05:24:41;;;;;;;57.63;2.90;;;;;;;;;;5072714;28;20971;-68
2023/06/03 05:27:09;;;;;;;59.50;3.27;;;;;;;;;;5072766;28;20443;-68
2023/06/03 05:29:36;;;;;;;57.10;2.60;;;;;;;;;;5072255;28;20462;-69
2023/06/03 05:32:04;;;;;;;57.40;2.50;;;;;;;;;;5072702;28;20467;-68
2023/06/03 05:34:31;;;;;;;56.97;2.40;;;;;;;;;;5072570;28;20459;-69
2023/06/03 05:36:58;;;;;;;57.70;2.57;;;;;;;;;;5072682;28;20447;-68
2023/06/03 05:39:25;;;;;;;57.10;2.40;;;;;;;;;;5071896;28;20485;-69
2023/06/03 05:41:52;;;;;;;57.07;2.47;;;;;;;;;;5072112;28;20478;-69
2023/06/03 05:44:21;;;;;;;57.10;2.60;;;;;;;;;;5072533;28;20447;-69
2023/06/03 05:46:48;;;;;;;57.80;2.90;;;;;;;;;;5072443;28;20512;-69
2023/06/03 05:49:15;;;;;;;57.27;2.50;;;;;;;;;;5072080;28;20448;-69
2023/06/03 05:51:42;;;;;;;58.07;3.13;;;;;;;;;;5072417;28;20479;-69
2023/06/03 05:54:09;;;;;;;57.40;2.50;;;;;;;;;;5072038;28;20451;-69
2023/06/03 05:56:36;;;;;;;57.27;2.40;;;;;;;;;;5072023;28;20971;-69
2023/06/03 05:59:03;;;;;;;57.17;2.43;;;;;;;;;;5071883;28;20452;-69
2023/06/03 06:01:32;;;;;;;56.87;2.27;;;;;;;;;;5071947;28;21010;-69
2023/06/03 06:03:59;;;;;;;57.17;2.77;;;;;;;;;;5071878;28;20944;-69
2023/06/03 06:06:26;;;;;;;57.37;2.70;;;;;;;;;;5072249;28;20841;-69
2023/06/03 06:08:54;;;;;;;57.37;2.77;;;;;;;;;;5071519;28;20451;-69
2023/06/03 06:11:21;;;;;;;57.23;2.53;;;;;;;;;;5071710;28;20965;-69
2023/06/03 06:13:48;;;;;;;57.70;2.60;;;;;;;;;;5072047;28;20956;-69
2023/06/03 06:16:15;;;;;;;57.47;2.80;;;;;;;;;;5071753;28;20552;-69
2023/06/03 06:18:44;;;;;;;57.30;2.40;;;;;;;;;;5070994;28;20440;-69
2023/06/03 06:21:11;;;;;;;57.27;2.60;;;;;;;;;;5071574;28;20487;-69
2023/06/03 06:23:38;;;;;;;57.33;2.60;;;;;;;;;;5072109;28;20839;-69
2023/06/03 06:26:05;;;;;;;57.37;2.57;;;;;;;;;;5071865;28;20450;-69
2023/06/03 06:28:32;;;;;;;56.97;2.50;;;;;;;;;;5071336;28;20451;-70
2023/06/03 06:31:02;;;;;;;57.20;2.43;;;;;;;;;;5071436;28;20439;-70
2023/06/03 06:33:30;;;;;;;57.33;2.70;;;;;;;;;;5071681;28;20499;-70
2023/06/03 06:35:58;;;;;;;57.80;3.77;;;;;;;;;;5071568;28;20452;-70
2023/06/03 06:38:25;;;;;;;56.83;2.47;;;;;;;;;;5071220;28;20936;-69
2023/06/03 06:40:53;;;;;;;57.07;2.47;;;;;;;;;;5070908;28;20479;-70
2023/06/03 06:43:25;;;;;;;58.07;2.87;;;;;;;;;;5071668;28;20471;-71
2023/06/03 06:45:52;;;;;;;58.37;3.53;;;;;;;;;;5071595;28;20432;-70
2023/06/03 06:48:19;;;;;;;57.70;2.70;;;;;;;;;;5070959;28;20462;-70
2023/06/03 06:50:47;;;;;;;57.40;2.80;;;;;;;;;;5070893;28;20446;-70
2023/06/03 06:53:18;;;;;;;57.27;2.50;;;;;;;;;;5071460;28;20475;-70
2023/06/03 06:55:49;;;;;;;57.57;3.20;;;;;;;;;;5071133;28;20451;-70
2023/06/03 06:58:16;;;;;;;57.17;2.60;;;;;;;;;;5071281;28;20454;-71
2023/06/03 07:00:43;;;;;;;56.90;2.33;;;;;;;;;;5070603;28;20479;-71
2023/06/03 07:03:11;;;;;;;57.37;2.60;;;;;;;;;;5071013;28;20472;-70
2023/06/03 07:05:38;;;;;;;57.27;2.60;;;;;;;;;;5070757;28;20503;-70
2023/06/03 07:08:06;;;;;;;57.10;2.30;;;;;;;;;;5071285;28;20450;-70
2023/06/03 07:10:35;;;;;;;59.07;3.90;;;;;;;;;;5070510;28;20443;-70
2023/06/03 07:13:02;;;;;;;57.03;2.30;;;;;;;;;;5071092;28;20521;-71
2023/06/03 07:15:30;;;;;;;57.40;2.60;;;;;;;;;;5071048;28;20453;-70
2023/06/03 07:17:58;;;;;;;57.37;2.73;;;;;;;;;;5071195;28;20459;-70
2023/06/03 07:20:28;;;;;;;57.30;2.60;;;;;;;;;;5070228;28;20482;-70
2023/06/03 07:22:56;;;;;;;57.77;2.70;;;;;;;;;;5070876;28;20463;-70
2023/06/03 07:25:31;;;;;;;57.97;3.37;;;;;;;;;;5070881;28;20451;-70
2023/06/03 07:28:00;;;;;;;57.27;2.90;;;;;;;;;;5070845;28;20447;-70
2023/06/03 07:30:27;;;;;;;57.50;2.87;;;;;;;;;;5070623;28;20466;-70
2023/06/03 07:32:57;;;;;;;57.37;2.50;;;;;;;;;;5071091;28;20470;-71
2023/06/03 07:35:24;;;;;;;65.43;2.97;;;;;;;;;;5070703;28;20940;-70
2023/06/03 07:37:51;;;;;;;58.90;3.10;;;;;;;;;;5070849;28;20979;-70
2023/06/03 07:40:18;;;;;;;58.27;3.60;;;;;;;;;;5070087;28;20483;-70
2023/06/03 07:42:45;;;;;;;57.03;2.40;;;;;;;;;;5071566;28;20980;-69
2023/06/03 07:45:14;;;;;;;57.73;3.30;;;;;;;;;;5070700;28;20462;-70
2023/06/03 07:47:42;;;;;;;57.03;2.43;;;;;;;;;;5070837;28;20463;-70
2023/06/03 07:50:20;;;;;;;57.07;2.50;;;;;;;;;;5070252;28;20439;-70
2023/06/03 07:52:47;;;;;;;58.00;2.40;;;;;;;;;;5070725;28;20471;-70
2023/06/03 07:55:14;;;;;;;59.87;4.00;;;;;;;;;;5070849;28;20451;-70
2023/06/03 07:57:46;;;;;;;57.60;2.87;;;;;;;;;;5070534;28;20461;-71
2023/06/03 08:00:16;;;;;;;57.73;2.70;;;;;;;;;;5070111;28;20521;-71
2023/06/03 08:02:43;;;;;;;57.37;2.50;;;;;;;;;;5070566;28;20524;-71
2023/06/03 08:05:10;;;;;;;57.70;3.00;;;;;;;;;;5066821;28;20459;-70
2023/06/03 08:07:37;;;;;;;57.37;2.70;;;;;;;;;;5070542;28;20447;-70
2023/06/03 08:10:05;;;;;;;57.23;2.50;;;;;;;;;;5069794;28;20454;-71
2023/06/03 08:12:34;;;;;;;58.03;2.63;;;;;;;;;;5070097;28;20990;-68
2023/06/03 08:15:02;;;;;;;57.40;2.60;;;;;;;;;;5070599;28;20819;-70
2023/06/03 08:17:38;;;;;;;57.90;2.60;;;;;;;;;;5071496;28;20483;-70
2023/06/03 08:20:09;;;;;;;56.97;2.30;;;;;;;;;;5072435;28;20479;-71
2023/06/03 08:22:41;;;;;;;56.70;2.60;;;;;;;;;;5073621;28;20471;-70
2023/06/03 08:25:08;;;;;;;57.80;2.80;;;;;;;;;;5073817;28;20811;-71
2023/06/03 08:27:36;;;;;;;57.27;2.67;;;;;;;;;;5073472;28;20451;-70
2023/06/03 08:30:03;;;;;;;57.60;2.70;;;;;;;;;;5072660;28;20458;-70
2023/06/03 08:32:30;;;;;;;57.03;3.00;;;;;;;;;;5073621;28;20489;-70
2023/06/03 08:34:59;;;;;;;57.60;2.93;;;;;;;;;;5073784;28;20547;-70
2023/06/03 08:37:26;;;;;;;56.83;2.60;;;;;;;;;;5073789;28;20463;-71
2023/06/03 08:39:53;;;;;;;57.13;2.70;;;;;;;;;;5073053;28;20544;-70
2023/06/03 08:42:23;;;;;;;57.33;2.73;;;;;;;;;;5072770;28;20483;-71
2023/06/03 08:44:58;;;;;;;56.73;2.50;;;;;;;;;;5072819;28;20450;-70
2023/06/03 08:47:31;;;;;;;57.37;2.50;;;;;;;;;;5072499;28;20431;-70
2023/06/03 08:50:01;;;;;;;56.87;2.67;;;;;;;;;;5073120;28;20458;-70
2023/06/03 08:52:31;;;;;;;57.40;2.40;;;;;;;;;;5073377;28;20463;-71
2023/06/03 08:55:01;;;;;;;57.30;2.50;;;;;;;;;;5073461;28;20814;-70
2023/06/03 08:57:29;;;;;;;57.40;2.50;;;;;;;;;;5073265;28;20464;-70
2023/06/03 08:59:57;;;;;;;56.97;2.17;;;;;;;;;;5072737;28;20451;-70
2023/06/03 09:02:27;;;;;;;58.83;3.73;;;;;;;;;;5073255;28;21019;-71
2023/06/03 09:04:54;;;;;;;59.47;3.43;;;;;;;;;;5073242;28;20451;-71
2023/06/03 09:07:24;;;;;;;57.50;2.70;;;;;;;;;;5073030;28;20963;-71
2023/06/03 09:09:52;;;;;;;56.87;1.93;;;;;;;;;;5072485;28;20455;-71
2023/06/03 09:12:19;;;;;;;57.10;2.10;;;;;;;;;;5072771;28;20471;-71
2023/06/03 09:14:47;;;;;;;56.90;2.00;;;;;;;;;;5073269;28;20857;-71
2023/06/03 09:17:14;;;;;;;57.00;2.30;;;;;;;;;;5072846;28;20509;-70
2023/06/03 09:19:42;;;;;;;57.00;2.53;;;;;;;;;;5072119;28;20474;-68
2023/06/03 09:22:10;;;;;;;58.13;2.67;;;;;;;;;;5072367;28;20884;-69
2023/06/03 09:24:38;;;;;;;56.87;2.20;;;;;;;;;;5073134;28;20460;-68
2023/06/03 09:27:06;;;;;;;59.70;2.80;;;;;;;;;;5072688;28;20807;-68
2023/06/03 09:29:33;;;;;;;56.40;2.33;;;;;;;;;;5067051;28;20451;-68
2023/06/03 09:32:00;;;;;;;56.90;2.20;;;;;;;;;;5072529;28;20463;-68
2023/06/03 09:34:27;;;;;;;57.00;2.50;;;;;;;;;;5071042;28;20436;-68
2023/06/03 09:36:54;;;;;;;57.60;2.50;;;;;;;;;;5061058;28;20967;-68
2023/06/03 09:39:33;;;;;;;57.33;2.80;;;;;;;;;;5051334;28;20956;-68
2023/06/03 09:42:01;;;;;;;57.83;2.43;;;;;;;;;;5051724;28;20488;-69
2023/06/03 09:44:38;;;;;;;57.10;2.33;;;;;;;;;;5052250;28;20541;-69
2023/06/03 09:47:06;;;;;;;57.67;2.60;;;;;;;;;;5051904;28;20440;-69
2023/06/03 09:49:33;;;;;;;56.97;2.37;;;;;;;;;;5050396;28;20458;-69
2023/06/03 09:52:00;;;;;;;57.40;2.50;;;;;;;;;;5052167;28;20469;-70
2023/06/03 09:54:27;;;;;;;57.87;2.40;;;;;;;;;;5052030;28;20452;-68
2023/06/03 09:56:55;;;;;;;57.40;2.40;;;;;;;;;;5051529;28;20466;-70
2023/06/03 09:59:25;;;;;;;57.47;2.60;;;;;;;;;;5051191;28;20829;-70
2023/06/03 10:01:52;;;;;;;57.20;2.70;;;;;;;;;;5051597;28;21106;-70
2023/06/03 10:04:22;;;;;;;57.80;2.20;;;;;;;;;;5051165;28;20547;-70
2023/06/03 10:06:49;;;;;;;60.30;4.53;;;;;;;;;;5051347;28;20490;-71
2023/06/03 10:09:20;;;;;;;58.00;3.33;;;;;;;;;;5051351;28;20448;-69
2023/06/03 10:11:47;;;;;;;57.40;2.90;;;;;;;;;;5052008;28;20518;-67
2023/06/03 10:14:15;;;;;;;57.60;2.90;;;;;;;;;;5052125;28;20452;-68
2023/06/03 10:16:44;;;;;;;58.10;3.53;;;;;;;;;;5051382;28;20461;-68
2023/06/03 10:19:22;;;;;;;57.10;2.60;;;;;;;;;;5050837;28;20459;-67
2023/06/03 10:21:49;;;;;;;57.20;2.80;;;;;;;;;;5051645;28;20988;-68
2023/06/03 10:24:16;;;;;;;57.90;3.03;;;;;;;;;;5051661;28;20452;-68
2023/06/03 10:26:43;;;;;;;57.00;2.33;;;;;;;;;;5051774;28;20816;-68
2023/06/03 10:29:10;;;;;;;57.20;2.40;;;;;;;;;;5050613;28;20456;-68
2023/06/03 10:31:39;;;;;;;56.50;2.20;;;;;;;;;;5051135;28;21003;-68
2023/06/03 10:34:08;;;;;;;56.80;2.23;;;;;;;;;;5051055;28;20452;-68
2023/06/03 10:36:35;;;;;;;57.00;2.10;;;;;;;;;;5051528;28;20448;-68
2023/06/03 10:39:07;;;;;;;57.20;2.43;;;;;;;;;;5050423;28;20555;-68
2023/06/03 10:41:36;;;;;;;56.67;2.50;;;;;;;;;;5051075;28;20502;-68
2023/06/03 10:44:03;;;;;;;56.97;2.57;;;;;;;;;;5051413;28;20470;-68
2023/06/03 10:46:30;;;;;;;56.30;2.37;;;;;;;;;;5051424;28;20465;-68
2023/06/03 10:48:58;;;;;;;57.10;2.83;;;;;;;;;;5050014;28;20471;-68
2023/06/03 10:51:36;;;;;;;57.60;3.97;;;;;;;;;;5050388;28;20447;-68
2023/06/03 10:54:15;;;;;;;57.30;3.30;;;;;;;;;;5051113;28;20975;-68
2023/06/03 10:56:47;;;;;;;56.77;2.53;;;;;;;;;;5051049;28;20558;-68
2023/06/03 10:59:18;;;;;;;56.50;2.40;;;;;;;;;;5050197;28;20468;-67
2023/06/03 11:02:01;;;;;;;57.33;2.53;;;;;;;;;;5051037;28;20495;-67
2023/06/03 11:04:29;;;;;;;56.37;2.10;;;;;;;;;;5050917;28;20490;-67
2023/06/03 11:06:58;;;;;;;56.90;2.63;;;;;;;;;;5051217;28;20479;-68
2023/06/03 11:09:31;;;;;;;56.60;2.20;;;;;;;;;;5050611;28;20520;-67
2023/06/03 11:12:07;;;;;;;56.00;2.00;;;;;;;;;;5050706;28;20464;-68
2023/06/03 11:14:52;;;;;;;56.30;2.20;;;;;;;;;;5051108;28;20589;-67
2023/06/03 11:17:20;;;;;;;56.17;1.90;;;;;;;;;;5050711;28;20448;-67
2023/06/03 11:19:50;;;;;;;60.13;2.83;;;;;;;;;;5050079;28;20450;-67
2023/06/03 11:22:37;;;;;;;56.07;2.13;;;;;;;;;;5050886;28;20494;-68
2023/06/03 11:25:06;;;;;;;56.60;2.20;;;;;;;;;;5050942;28;20552;-67
2023/06/03 11:27:33;;;;;;;56.13;2.30;;;;;;;;;;5050572;28;20459;-68
2023/06/03 11:30:01;;;;;;;57.77;2.57;;;;;;;;;;5050352;28;20451;-68
2023/06/03 11:32:29;;;;;;;55.90;2.30;;;;;;;;;;5050430;28;21040;-68
2023/06/03 11:35:11;;;;;;;56.30;2.50;;;;;;;;;;5050647;28;20452;-68
2023/06/03 11:37:52;;;;;;;56.47;2.60;;;;;;;;;;5050658;28;20447;-67
2023/06/03 11:40:21;;;;;;;57.57;2.60;;;;;;;;;;5050013;28;20448;-67
2023/06/03 11:43:07;;;;;;;56.47;2.40;;;;;;;;;;5050634;28;20488;-67
2023/06/03 11:45:37;;;;;;;56.47;2.60;;;;;;;;;;5050495;28;20936;-68
2023/06/03 11:48:05;;;;;;;56.37;2.20;;;;;;;;;;5050431;28;20504;-68
2023/06/03 11:50:33;;;;;;;56.80;2.57;;;;;;;;;;5049996;28;20495;-68
2023/06/03 11:53:01;;;;;;;57.97;2.77;;;;;;;;;;5054485;28;20468;-68
2023/06/03 11:55:30;;;;;;;56.60;2.00;;;;;;;;;;5054085;28;20444;-67
2023/06/03 11:58:08;;;;;;;56.60;2.23;;;;;;;;;;5054419;28;20428;-67
2023/06/03 12:00:35;;;;;;;56.90;2.40;;;;;;;;;;5053681;28;20455;-67
2023/06/03 12:03:02;;;;;;;56.50;1.70;;;;;;;;;;5053794;28;20498;-67
2023/06/03 12:05:30;;;;;;;56.97;2.50;;;;;;;;;;5053666;28;20505;-67
2023/06/03 12:07:57;;;;;;;56.57;2.00;;;;;;;;;;5054392;28;20444;-68
2023/06/03 12:10:25;;;;;;;57.20;2.40;;;;;;;;;;5053536;28;20471;-68
2023/06/03 12:12:53;;;;;;;57.00;2.03;;;;;;;;;;5054166;28;20464;-67
2023/06/03 12:15:21;;;;;;;57.10;2.50;;;;;;;;;;5053756;28;20471;-68
2023/06/03 12:17:49;;;;;;;57.37;2.63;;;;;;;;;;5054012;28;20466;-68
2023/06/03 12:20:24;;;;;;;57.57;2.90;;;;;;;;;;5053611;28;20828;-68
2023/06/03 12:22:51;;;;;;;56.10;2.10;;;;;;;;;;5053689;28;20983;-68
2023/06/03 12:25:22;;;;;;;56.07;2.30;;;;;;;;;;5053675;28;20969;-68
2023/06/03 12:27:49;;;;;;;55.67;2.20;;;;;;;;;;5053777;28;20448;-68
2023/06/03 12:30:30;;;;;;;56.27;2.20;;;;;;;;;;5053291;28;20452;-68
2023/06/03 12:32:58;;;;;;;55.70;2.20;;;;;;;;;;5053620;28;20464;-67
2023/06/03 12:35:26;;;;;;;55.60;2.23;;;;;;;;;;5053826;28;20550;-68
2023/06/03 12:38:04;;;;;;;56.00;2.50;;;;;;;;;;5053708;28;20538;-68
2023/06/03 12:40:31;;;;;;;55.60;2.37;;;;;;;;;;5051976;28;20440;-68
2023/06/03 12:42:58;;;;;;;56.07;2.30;;;;;;;;;;5053860;28;20460;-68
2023/06/03 12:45:26;;;;;;;55.37;2.07;;;;;;;;;;5053846;28;20456;-67
2023/06/03 12:47:55;;;;;;;55.97;2.30;;;;;;;;;;5053754;28;20448;-68
2023/06/03 12:50:23;;;;;;;56.70;2.27;;;;;;;;;;5052779;28;20459;-68
2023/06/03 12:52:50;;;;;;;56.97;2.33;;;;;;;;;;5053696;28;20527;-67
2023/06/03 12:55:18;;;;;;;57.07;2.33;;;;;;;;;;5053486;28;20476;-67
2023/06/03 12:57:46;;;;;;;56.50;2.60;;;;;;;;;;5053233;28;20466;-67
2023/06/03 13:00:15;;;;;;;57.13;2.50;;;;;;;;;;5052713;28;20444;-68
2023/06/03 13:02:43;;;;;;;56.97;2.80;;;;;;;;;;5052630;28;20526;-67
2023/06/03 13:05:12;;;;;;;56.77;2.47;;;;;;;;;;5053356;28;20479;-68
2023/06/03 13:07:40;;;;;;;56.10;2.13;;;;;;;;;;5053119;28;20453;-68
2023/06/03 13:10:07;;;;;;;56.00;1.93;;;;;;;;;;5052607;28;20448;-68
2023/06/03 13:12:35;;;;;;;56.70;2.77;;;;;;;;;;5053283;28;20489;-68
2023/06/03 13:15:03;;;;;;;56.77;2.97;;;;;;;;;;5053144;28;20539;-67
2023/06/03 13:17:31;;;;;;;55.57;2.30;;;;;;;;;;5052906;28;20530;-68
2023/06/03 13:19:59;;;;;;;55.83;2.47;;;;;;;;;;5052094;28;20527;-68
2023/06/03 13:22:27;;;;;;;57.40;3.20;;;;;;;;;;5053174;28;20472;-68
2023/06/03 13:24:55;;;;;;;56.83;2.40;;;;;;;;;;5052743;28;20971;-68
2023/06/03 13:27:22;;;;;;;55.70;2.30;;;;;;;;;;5052800;28;20867;-68
2023/06/03 13:29:51;;;;;;;56.10;2.40;;;;;;;;;;5052081;28;20460;-68
2023/06/03 13:32:18;;;;;;;56.27;2.67;;;;;;;;;;5052822;28;20488;-68
2023/06/03 13:34:46;;;;;;;55.67;1.73;;;;;;;;;;5052646;28;20809;-67
2023/06/03 13:37:13;;;;;;;56.83;2.50;;;;;;;;;;5052499;28;20948;-67
2023/06/03 13:39:42;;;;;;;56.63;2.30;;;;;;;;;;5052099;28;20458;-67
2023/06/03 13:42:10;;;;;;;56.20;2.07;;;;;;;;;;5052766;28;20842;-67
2023/06/03 13:44:37;;;;;;;56.30;2.20;;;;;;;;;;5052363;28;20450;-67
2023/06/03 13:47:05;;;;;;;56.40;2.13;;;;;;;;;;5052634;28;20447;-67
2023/06/03 13:49:32;;;;;;;55.93;2.50;;;;;;;;;;5051697;28;20456;-67
2023/06/03 13:51:59;;;;;;;56.27;2.40;;;;;;;;;;5052338;28;20854;-68
2023/06/03 13:54:26;;;;;;;55.37;2.10;;;;;;;;;;5052208;28;20461;-68
2023/06/03 13:56:55;;;;;;;55.93;2.60;;;;;;;;;;5051989;28;20841;-68
2023/06/03 13:59:22;;;;;;;55.90;2.13;;;;;;;;;;5051661;28;20455;-68
2023/06/03 14:01:49;;;;;;;55.97;2.20;;;;;;;;;;5051817;28;20814;-68
2023/06/03 14:04:17;;;;;;;55.27;1.83;;;;;;;;;;5051970;28;20464;-67
2023/06/03 14:06:44;;;;;;;55.77;2.70;;;;;;;;;;5051938;28;20449;-68
2023/06/03 14:09:11;;;;;;;55.67;2.23;;;;;;;;;;5051505;28;20456;-67
2023/06/03 14:11:38;;;;;;;55.47;2.03;;;;;;;;;;5051682;28;20468;-68
2023/06/03 14:14:07;;;;;;;55.80;2.30;;;;;;;;;;5051050;28;20488;-67
2023/06/03 14:16:34;;;;;;;55.37;2.20;;;;;;;;;;5051629;28;20527;-68
2023/06/03 14:19:01;;;;;;;55.80;2.50;;;;;;;;;;5051327;28;20454;-68
2023/06/03 14:21:29;;;;;;;55.43;2.03;;;;;;;;;;5051797;28;20957;-67
2023/06/03 14:23:56;;;;;;;55.73;2.40;;;;;;;;;;5051705;28;20813;-68
2023/06/03 14:26:23;;;;;;;56.00;2.47;;;;;;;;;;5051634;28;20455;-68
2023/06/03 14:28:50;;;;;;;55.67;2.10;;;;;;;;;;5050861;28;20459;-68
2023/06/03 14:31:20;;;;;;;55.47;2.20;;;;;;;;;;5051667;28;20475;-68
2023/06/03 14:33:47;;;;;;;55.37;1.73;;;;;;;;;;5051751;28;20527;-68
2023/06/03 14:36:14;;;;;;;55.50;1.77;;;;;;;;;;5051539;28;20451;-68
2023/06/03 14:38:42;;;;;;;55.47;1.80;;;;;;;;;;5050853;28;20953;-68